KNKX/NKX METAR and TAF weather

Enter ICAO airport designator
Station Type Date Time Source
KNKX METAR 2021/09/16 09:55 UTC NOAA

KNKX 160955Z 00000KT 10SM OVC016 17/14 A2987 RMK AO2 SLP110 T01720139 $


Station Type Date Time Source
KNKX Decoded METAR 2021/09/16 09:55 UTC NOAA

MCAS MIRAMAR, CA, United States (KNKX) 32-52N 117-09W 146M
Sep 16, 2021 - 05:55 AM EDT / 2021.09.16 0955 UTC
Wind: Calm:0
Visibility: 10 mile(s):0
Sky conditions: overcast
Temperature: 63.0 F (17.2 C)
Dew Point: 57.0 F (13.9 C)
Relative Humidity: 80%
Pressure (altimeter): 29.87 in. Hg (1011 hPa)
ob: KNKX 160955Z 00000KT 10SM OVC016 17/14 A2987 RMK AO2 SLP110 T01720139
cycle: 10

Station Type Date Time Source
KNKX TAF 2021/09/16 09:31 UTC NOAA

TAF KNKX 1609/1709 VRB05KT 9999 OVC014 QNH2985INS
TEMPO 1610/1616 OVC009
BECMG 1616/1618 VRB05KT 9999 SCT013 QNH2985INS
FM161930 28009KT 9999 FEW015 QNH2983INS
FM170230 VRB05KT 9999 FEW015 QNH2984INS
BECMG 1703/1705 VRB05KT 9999 OVC014 QNH2988INS T14/1613Z T24/1621Z

Example: see airport list